sensor_id;sensor_type;location;lat;lon;timestamp;P1;durP1;ratioP1;P2;durP2;ratioP2
78818;SDS011;68166;55.090;37.460;2023-07-09T00:04:37;13.32;;;6.22;;
78818;SDS011;68166;55.090;37.460;2023-07-09T00:09:41;11.57;;;5.25;;
78818;SDS011;68166;55.090;37.460;2023-07-09T00:14:43;9.88;;;5.18;;
78818;SDS011;68166;55.090;37.460;2023-07-09T00:19:46;10.63;;;6.53;;
78818;SDS011;68166;55.090;37.460;2023-07-09T00:24:51;11.82;;;5.50;;
78818;SDS011;68166;55.090;37.460;2023-07-09T00:29:58;9.43;;;5.47;;
78818;SDS011;68166;55.090;37.460;2023-07-09T00:35:00;7.47;;;5.22;;
78818;SDS011;68166;55.090;37.460;2023-07-09T00:40:08;12.55;;;6.80;;
78818;SDS011;68166;55.090;37.460;2023-07-09T00:45:18;10.93;;;6.97;;
78818;SDS011;68166;55.090;37.460;2023-07-09T00:55:42;11.48;;;5.30;;
78818;SDS011;68166;55.090;37.460;2023-07-09T01:00:49;9.85;;;6.20;;
78818;SDS011;68166;55.090;37.460;2023-07-09T01:05:53;14.15;;;5.78;;
78818;SDS011;68166;55.090;37.460;2023-07-09T01:10:56;12.27;;;6.18;;
78818;SDS011;68166;55.090;37.460;2023-07-09T01:16:00;9.65;;;6.43;;
78818;SDS011;68166;55.090;37.460;2023-07-09T01:21:02;13.55;;;4.65;;
78818;SDS011;68166;55.090;37.460;2023-07-09T01:26:11;8.68;;;5.35;;
78818;SDS011;68166;55.090;37.460;2023-07-09T01:31:15;11.73;;;6.55;;
78818;SDS011;68166;55.090;37.460;2023-07-09T01:36:18;10.15;;;6.60;;
78818;SDS011;68166;55.090;37.460;2023-07-09T01:41:24;9.05;;;5.32;;
78818;SDS011;68166;55.090;37.460;2023-07-09T01:46:26;10.05;;;3.95;;
78818;SDS011;68166;55.090;37.460;2023-07-09T01:51:28;9.90;;;5.32;;
78818;SDS011;68166;55.090;37.460;2023-07-09T01:56:30;9.18;;;4.53;;
78818;SDS011;68166;55.090;37.460;2023-07-09T02:01:32;7.88;;;4.40;;
78818;SDS011;68166;55.090;37.460;2023-07-09T02:06:34;7.75;;;4.10;;
78818;SDS011;68166;55.090;37.460;2023-07-09T02:11:36;10.40;;;4.50;;
78818;SDS011;68166;55.090;37.460;2023-07-09T02:16:38;13.38;;;4.53;;
78818;SDS011;68166;55.090;37.460;2023-07-09T02:21:40;9.13;;;4.20;;
78818;SDS011;68166;55.090;37.460;2023-07-09T02:26:42;7.22;;;4.45;;
78818;SDS011;68166;55.090;37.460;2023-07-09T02:31:44;11.10;;;5.43;;
78818;SDS011;68166;55.090;37.460;2023-07-09T02:36:46;6.88;;;4.43;;
78818;SDS011;68166;55.090;37.460;2023-07-09T02:41:48;8.10;;;4.10;;
78818;SDS011;68166;55.090;37.460;2023-07-09T02:46:50;8.60;;;4.35;;
78818;SDS011;68166;55.090;37.460;2023-07-09T02:51:52;9.32;;;4.47;;
78818;SDS011;68166;55.090;37.460;2023-07-09T02:56:54;8.52;;;4.35;;
78818;SDS011;68166;55.090;37.460;2023-07-09T03:01:56;9.65;;;5.03;;
78818;SDS011;68166;55.090;37.460;2023-07-09T03:07:00;9.25;;;5.15;;
78818;SDS011;68166;55.090;37.460;2023-07-09T03:12:02;9.07;;;4.53;;
78818;SDS011;68166;55.090;37.460;2023-07-09T03:17:04;12.25;;;5.85;;
78818;SDS011;68166;55.090;37.460;2023-07-09T03:22:06;8.95;;;5.55;;
78818;SDS011;68166;55.090;37.460;2023-07-09T03:27:08;8.90;;;4.75;;
78818;SDS011;68166;55.090;37.460;2023-07-09T03:32:10;11.48;;;5.68;;
78818;SDS011;68166;55.090;37.460;2023-07-09T03:37:12;9.05;;;5.88;;
78818;SDS011;68166;55.090;37.460;2023-07-09T03:42:14;11.18;;;5.85;;
78818;SDS011;68166;55.090;37.460;2023-07-09T03:47:16;9.90;;;5.68;;
78818;SDS011;68166;55.090;37.460;2023-07-09T03:52:21;13.40;;;5.82;;
78818;SDS011;68166;55.090;37.460;2023-07-09T03:57:23;10.23;;;5.72;;
78818;SDS011;68166;55.090;37.460;2023-07-09T04:02:25;14.32;;;5.55;;
78818;SDS011;68166;55.090;37.460;2023-07-09T04:07:27;7.97;;;4.78;;
78818;SDS011;68166;55.090;37.460;2023-07-09T04:12:29;8.55;;;4.85;;
78818;SDS011;68166;55.090;37.460;2023-07-09T04:17:31;8.10;;;4.13;;
78818;SDS011;68166;55.090;37.460;2023-07-09T04:22:33;9.77;;;5.75;;
78818;SDS011;68166;55.090;37.460;2023-07-09T04:27:36;10.13;;;4.50;;
78818;SDS011;68166;55.090;37.460;2023-07-09T04:32:39;8.13;;;4.03;;
78818;SDS011;68166;55.090;37.460;2023-07-09T04:37:41;7.57;;;3.97;;
78818;SDS011;68166;55.090;37.460;2023-07-09T04:42:43;6.22;;;3.38;;
78818;SDS011;68166;55.090;37.460;2023-07-09T04:47:45;6.18;;;2.88;;
78818;SDS011;68166;55.090;37.460;2023-07-09T04:52:47;6.35;;;3.50;;
78818;SDS011;68166;55.090;37.460;2023-07-09T04:57:49;5.35;;;3.00;;
78818;SDS011;68166;55.090;37.460;2023-07-09T05:02:51;7.82;;;3.50;;
78818;SDS011;68166;55.090;37.460;2023-07-09T05:07:53;7.25;;;3.00;;
78818;SDS011;68166;55.090;37.460;2023-07-09T05:12:55;6.85;;;2.90;;
78818;SDS011;68166;55.090;37.460;2023-07-09T05:17:57;6.65;;;2.63;;
78818;SDS011;68166;55.090;37.460;2023-07-09T05:22:59;5.95;;;2.90;;
78818;SDS011;68166;55.090;37.460;2023-07-09T05:28:02;5.80;;;3.28;;
78818;SDS011;68166;55.090;37.460;2023-07-09T05:33:04;4.72;;;2.60;;
78818;SDS011;68166;55.090;37.460;2023-07-09T05:38:06;4.63;;;2.30;;
78818;SDS011;68166;55.090;37.460;2023-07-09T05:43:09;5.03;;;2.92;;
78818;SDS011;68166;55.090;37.460;2023-07-09T05:48:11;4.57;;;1.98;;
78818;SDS011;68166;55.090;37.460;2023-07-09T05:53:13;4.72;;;2.67;;
78818;SDS011;68166;55.090;37.460;2023-07-09T05:58:15;3.90;;;1.90;;
78818;SDS011;68166;55.090;37.460;2023-07-09T06:03:17;4.25;;;2.28;;
78818;SDS011;68166;55.090;37.460;2023-07-09T06:08:20;4.22;;;1.85;;
78818;SDS011;68166;55.090;37.460;2023-07-09T06:13:22;4.25;;;1.55;;
78818;SDS011;68166;55.090;37.460;2023-07-09T06:18:25;4.70;;;2.10;;
78818;SDS011;68166;55.090;37.460;2023-07-09T06:23:30;3.63;;;2.08;;
78818;SDS011;68166;55.090;37.460;2023-07-09T06:28:33;3.45;;;1.70;;
78818;SDS011;68166;55.090;37.460;2023-07-09T06:33:35;5.43;;;2.20;;
78818;SDS011;68166;55.090;37.460;2023-07-09T06:38:37;3.97;;;1.77;;
78818;SDS011;68166;55.090;37.460;2023-07-09T06:43:39;3.90;;;1.70;;
78818;SDS011;68166;55.090;37.460;2023-07-09T06:48:41;5.78;;;1.88;;
78818;SDS011;68166;55.090;37.460;2023-07-09T06:53:42;6.30;;;1.98;;
78818;SDS011;68166;55.090;37.460;2023-07-09T06:58:48;4.55;;;1.80;;
78818;SDS011;68166;55.090;37.460;2023-07-09T07:03:53;7.70;;;2.00;;
78818;SDS011;68166;55.090;37.460;2023-07-09T07:08:55;2.75;;;1.50;;
78818;SDS011;68166;55.090;37.460;2023-07-09T07:13:57;3.35;;;1.88;;
78818;SDS011;68166;55.090;37.460;2023-07-09T07:18:59;3.85;;;1.75;;
78818;SDS011;68166;55.090;37.460;2023-07-09T07:24:01;3.08;;;1.85;;
78818;SDS011;68166;55.090;37.460;2023-07-09T07:29:04;5.47;;;1.85;;
78818;SDS011;68166;55.090;37.460;2023-07-09T07:34:06;3.20;;;1.80;;
78818;SDS011;68166;55.090;37.460;2023-07-09T07:39:08;8.80;;;2.30;;
78818;SDS011;68166;55.090;37.460;2023-07-09T07:44:10;2.03;;;1.08;;
78818;SDS011;68166;55.090;37.460;2023-07-09T07:49:12;3.83;;;2.05;;
78818;SDS011;68166;55.090;37.460;2023-07-09T07:54:14;3.95;;;2.42;;
78818;SDS011;68166;55.090;37.460;2023-07-09T07:59:19;5.15;;;1.90;;
78818;SDS011;68166;55.090;37.460;2023-07-09T08:04:21;3.92;;;2.15;;
78818;SDS011;68166;55.090;37.460;2023-07-09T08:09:23;7.00;;;1.92;;
78818;SDS011;68166;55.090;37.460;2023-07-09T08:14:25;4.47;;;1.90;;
78818;SDS011;68166;55.090;37.460;2023-07-09T08:19:27;4.72;;;2.30;;
78818;SDS011;68166;55.090;37.460;2023-07-09T08:24:29;3.85;;;1.98;;
78818;SDS011;68166;55.090;37.460;2023-07-09T08:29:31;4.72;;;2.90;;
78818;SDS011;68166;55.090;37.460;2023-07-09T08:34:33;4.43;;;2.40;;
78818;SDS011;68166;55.090;37.460;2023-07-09T08:39:35;6.10;;;2.40;;
78818;SDS011;68166;55.090;37.460;2023-07-09T08:49:56;6.47;;;1.88;;
78818;SDS011;68166;55.090;37.460;2023-07-09T08:55:05;5.07;;;2.85;;
78818;SDS011;68166;55.090;37.460;2023-07-09T09:00:49;4.93;;;1.77;;
78818;SDS011;68166;55.090;37.460;2023-07-09T09:05:57;5.03;;;2.05;;
78818;SDS011;68166;55.090;37.460;2023-07-09T09:11:07;5.10;;;2.25;;
78818;SDS011;68166;55.090;37.460;2023-07-09T09:16:25;3.33;;;2.20;;
78818;SDS011;68166;55.090;37.460;2023-07-09T09:21:31;6.88;;;2.38;;
78818;SDS011;68166;55.090;37.460;2023-07-09T09:26:35;3.78;;;1.85;;
78818;SDS011;68166;55.090;37.460;2023-07-09T09:31:38;5.13;;;2.05;;
78818;SDS011;68166;55.090;37.460;2023-07-09T09:36:40;4.03;;;1.90;;
78818;SDS011;68166;55.090;37.460;2023-07-09T09:41:43;5.47;;;2.17;;
78818;SDS011;68166;55.090;37.460;2023-07-09T09:46:47;4.80;;;1.90;;
78818;SDS011;68166;55.090;37.460;2023-07-09T09:51:50;4.43;;;2.10;;
78818;SDS011;68166;55.090;37.460;2023-07-09T09:56:53;3.75;;;1.98;;
78818;SDS011;68166;55.090;37.460;2023-07-09T10:01:59;4.18;;;2.05;;
78818;SDS011;68166;55.090;37.460;2023-07-09T10:07:03;3.67;;;2.10;;
78818;SDS011;68166;55.090;37.460;2023-07-09T10:39:02;5.00;;;1.95;;
78818;SDS011;68166;55.090;37.460;2023-07-09T10:49:17;4.35;;;2.13;;
78818;SDS011;68166;55.090;37.460;2023-07-09T10:54:33;4.80;;;2.78;;
78818;SDS011;68166;55.090;37.460;2023-07-09T11:00:01;3.80;;;2.25;;
78818;SDS011;68166;55.090;37.460;2023-07-09T11:05:04;3.38;;;2.10;;
78818;SDS011;68166;55.090;37.460;2023-07-09T11:10:15;3.70;;;1.73;;
78818;SDS011;68166;55.090;37.460;2023-07-09T11:15:37;3.65;;;1.83;;
78818;SDS011;68166;55.090;37.460;2023-07-09T11:20:42;4.65;;;2.03;;
78818;SDS011;68166;55.090;37.460;2023-07-09T11:25:46;4.88;;;2.28;;
78818;SDS011;68166;55.090;37.460;2023-07-09T11:31:08;5.35;;;1.98;;
78818;SDS011;68166;55.090;37.460;2023-07-09T11:36:26;3.60;;;2.10;;
78818;SDS011;68166;55.090;37.460;2023-07-09T11:46:47;4.85;;;2.03;;
78818;SDS011;68166;55.090;37.460;2023-07-09T11:51:55;3.83;;;2.10;;
78818;SDS011;68166;55.090;37.460;2023-07-09T11:57:00;3.80;;;2.55;;
78818;SDS011;68166;55.090;37.460;2023-07-09T12:02:04;5.00;;;2.28;;
78818;SDS011;68166;55.090;37.460;2023-07-09T12:07:06;2.85;;;1.73;;
78818;SDS011;68166;55.090;37.460;2023-07-09T12:12:16;3.53;;;1.60;;
78818;SDS011;68166;55.090;37.460;2023-07-09T12:17:19;5.88;;;2.10;;
78818;SDS011;68166;55.090;37.460;2023-07-09T12:22:25;3.53;;;2.08;;
78818;SDS011;68166;55.090;37.460;2023-07-09T12:27:31;4.72;;;2.42;;
78818;SDS011;68166;55.090;37.460;2023-07-09T12:32:47;4.05;;;2.25;;
78818;SDS011;68166;55.090;37.460;2023-07-09T12:37:51;4.32;;;2.60;;
78818;SDS011;68166;55.090;37.460;2023-07-09T12:42:53;5.70;;;2.53;;
78818;SDS011;68166;55.090;37.460;2023-07-09T12:47:58;5.60;;;2.60;;
78818;SDS011;68166;55.090;37.460;2023-07-09T12:53:11;5.90;;;2.50;;
78818;SDS011;68166;55.090;37.460;2023-07-09T12:58:20;4.72;;;2.58;;
78818;SDS011;68166;55.090;37.460;2023-07-09T13:03:27;5.20;;;2.45;;
78818;SDS011;68166;55.090;37.460;2023-07-09T13:08:32;4.43;;;2.22;;
78818;SDS011;68166;55.090;37.460;2023-07-09T13:13:53;5.93;;;2.08;;
78818;SDS011;68166;55.090;37.460;2023-07-09T13:18:59;8.00;;;3.33;;
78818;SDS011;68166;55.090;37.460;2023-07-09T13:24:01;4.80;;;2.53;;
78818;SDS011;68166;55.090;37.460;2023-07-09T13:29:15;5.68;;;2.83;;
78818;SDS011;68166;55.090;37.460;2023-07-09T13:34:22;6.50;;;3.08;;
78818;SDS011;68166;55.090;37.460;2023-07-09T13:39:25;6.60;;;2.67;;
78818;SDS011;68166;55.090;37.460;2023-07-09T13:44:27;6.03;;;2.70;;
78818;SDS011;68166;55.090;37.460;2023-07-09T13:49:31;12.63;;;2.92;;
78818;SDS011;68166;55.090;37.460;2023-07-09T13:54:35;4.25;;;2.40;;
78818;SDS011;68166;55.090;37.460;2023-07-09T13:59:38;4.20;;;2.25;;
78818;SDS011;68166;55.090;37.460;2023-07-09T14:04:41;3.53;;;2.15;;
78818;SDS011;68166;55.090;37.460;2023-07-09T14:09:43;4.30;;;2.80;;
78818;SDS011;68166;55.090;37.460;2023-07-09T14:14:45;3.63;;;2.45;;
78818;SDS011;68166;55.090;37.460;2023-07-09T14:19:47;5.03;;;2.63;;
78818;SDS011;68166;55.090;37.460;2023-07-09T14:24:51;4.05;;;2.10;;
78818;SDS011;68166;55.090;37.460;2023-07-09T14:29:53;5.97;;;2.35;;
78818;SDS011;68166;55.090;37.460;2023-07-09T14:34:56;8.35;;;3.25;;
78818;SDS011;68166;55.090;37.460;2023-07-09T14:39:58;3.20;;;2.40;;
78818;SDS011;68166;55.090;37.460;2023-07-09T14:44:59;6.40;;;2.35;;
78818;SDS011;68166;55.090;37.460;2023-07-09T14:50:01;4.32;;;2.35;;
78818;SDS011;68166;55.090;37.460;2023-07-09T14:55:04;6.25;;;2.40;;
78818;SDS011;68166;55.090;37.460;2023-07-09T15:00:06;3.22;;;1.83;;
78818;SDS011;68166;55.090;37.460;2023-07-09T15:05:25;4.22;;;2.78;;
78818;SDS011;68166;55.090;37.460;2023-07-09T15:10:27;5.10;;;2.67;;
78818;SDS011;68166;55.090;37.460;2023-07-09T15:15:30;4.88;;;2.25;;
78818;SDS011;68166;55.090;37.460;2023-07-09T15:20:32;3.75;;;1.98;;
78818;SDS011;68166;55.090;37.460;2023-07-09T15:25:34;5.50;;;2.22;;
78818;SDS011;68166;55.090;37.460;2023-07-09T15:30:36;4.03;;;1.75;;
78818;SDS011;68166;55.090;37.460;2023-07-09T15:35:39;5.85;;;2.13;;
78818;SDS011;68166;55.090;37.460;2023-07-09T15:40:41;4.90;;;2.10;;
78818;SDS011;68166;55.090;37.460;2023-07-09T15:45:45;5.90;;;2.63;;
78818;SDS011;68166;55.090;37.460;2023-07-09T15:50:48;5.53;;;2.33;;
78818;SDS011;68166;55.090;37.460;2023-07-09T15:55:50;5.28;;;2.10;;
78818;SDS011;68166;55.090;37.460;2023-07-09T16:00:55;5.18;;;2.25;;
78818;SDS011;68166;55.090;37.460;2023-07-09T16:05:57;4.88;;;2.03;;
78818;SDS011;68166;55.090;37.460;2023-07-09T16:10:59;3.90;;;2.10;;
78818;SDS011;68166;55.090;37.460;2023-07-09T16:16:01;4.40;;;2.00;;
78818;SDS011;68166;55.090;37.460;2023-07-09T16:21:29;5.55;;;2.13;;
78818;SDS011;68166;55.090;37.460;2023-07-09T16:31:33;5.03;;;2.25;;
78818;SDS011;68166;55.090;37.460;2023-07-09T16:36:35;5.53;;;1.98;;
78818;SDS011;68166;55.090;37.460;2023-07-09T16:41:37;3.75;;;2.10;;
78818;SDS011;68166;55.090;37.460;2023-07-09T16:46:39;8.43;;;3.30;;
78818;SDS011;68166;55.090;37.460;2023-07-09T16:51:41;6.15;;;2.72;;
78818;SDS011;68166;55.090;37.460;2023-07-09T16:56:43;4.25;;;2.45;;
78818;SDS011;68166;55.090;37.460;2023-07-09T17:01:45;5.00;;;2.50;;
78818;SDS011;68166;55.090;37.460;2023-07-09T17:06:49;5.10;;;3.08;;
78818;SDS011;68166;55.090;37.460;2023-07-09T17:11:57;7.63;;;2.83;;
78818;SDS011;68166;55.090;37.460;2023-07-09T17:17:00;8.82;;;3.60;;
78818;SDS011;68166;55.090;37.460;2023-07-09T17:22:04;6.50;;;2.97;;
78818;SDS011;68166;55.090;37.460;2023-07-09T17:27:34;7.85;;;3.10;;
78818;SDS011;68166;55.090;37.460;2023-07-09T17:32:36;10.07;;;2.85;;
78818;SDS011;68166;55.090;37.460;2023-07-09T17:37:38;6.15;;;3.13;;
78818;SDS011;68166;55.090;37.460;2023-07-09T17:42:42;6.97;;;2.70;;
78818;SDS011;68166;55.090;37.460;2023-07-09T17:47:44;4.90;;;2.83;;
78818;SDS011;68166;55.090;37.460;2023-07-09T17:52:46;5.55;;;2.92;;
78818;SDS011;68166;55.090;37.460;2023-07-09T17:57:50;6.75;;;2.83;;
78818;SDS011;68166;55.090;37.460;2023-07-09T18:03:01;7.30;;;2.95;;
78818;SDS011;68166;55.090;37.460;2023-07-09T18:08:09;6.28;;;2.88;;
78818;SDS011;68166;55.090;37.460;2023-07-09T18:13:15;4.45;;;2.72;;
78818;SDS011;68166;55.090;37.460;2023-07-09T18:18:28;4.05;;;2.20;;
78818;SDS011;68166;55.090;37.460;2023-07-09T18:23:29;4.13;;;2.17;;
78818;SDS011;68166;55.090;37.460;2023-07-09T18:28:31;6.72;;;2.70;;
78818;SDS011;68166;55.090;37.460;2023-07-09T18:33:34;6.50;;;3.08;;
78818;SDS011;68166;55.090;37.460;2023-07-09T18:38:36;5.32;;;2.50;;
78818;SDS011;68166;55.090;37.460;2023-07-09T18:43:38;5.60;;;2.78;;
78818;SDS011;68166;55.090;37.460;2023-07-09T18:48:40;8.48;;;2.88;;
78818;SDS011;68166;55.090;37.460;2023-07-09T18:53:44;8.95;;;2.90;;
78818;SDS011;68166;55.090;37.460;2023-07-09T18:58:48;4.05;;;2.45;;
78818;SDS011;68166;55.090;37.460;2023-07-09T19:03:50;4.28;;;2.38;;
78818;SDS011;68166;55.090;37.460;2023-07-09T19:08:55;5.38;;;2.72;;
78818;SDS011;68166;55.090;37.460;2023-07-09T19:13:59;4.63;;;2.45;;
78818;SDS011;68166;55.090;37.460;2023-07-09T19:19:01;5.35;;;3.05;;
78818;SDS011;68166;55.090;37.460;2023-07-09T19:24:07;7.50;;;2.60;;
78818;SDS011;68166;55.090;37.460;2023-07-09T19:29:40;5.47;;;2.72;;
78818;SDS011;68166;55.090;37.460;2023-07-09T19:34:43;6.35;;;2.45;;
78818;SDS011;68166;55.090;37.460;2023-07-09T19:39:45;7.00;;;3.20;;
78818;SDS011;68166;55.090;37.460;2023-07-09T19:44:48;6.07;;;2.35;;
78818;SDS011;68166;55.090;37.460;2023-07-09T19:49:52;6.25;;;3.17;;
78818;SDS011;68166;55.090;37.460;2023-07-09T19:55:09;4.53;;;2.33;;
78818;SDS011;68166;55.090;37.460;2023-07-09T20:00:21;5.28;;;2.38;;
78818;SDS011;68166;55.090;37.460;2023-07-09T20:05:25;6.18;;;2.50;;
78818;SDS011;68166;55.090;37.460;2023-07-09T20:10:29;6.22;;;2.53;;
78818;SDS011;68166;55.090;37.460;2023-07-09T20:15:34;8.50;;;2.00;;
78818;SDS011;68166;55.090;37.460;2023-07-09T20:20:36;4.88;;;1.80;;
78818;SDS011;68166;55.090;37.460;2023-07-09T20:25:38;4.05;;;2.28;;
78818;SDS011;68166;55.090;37.460;2023-07-09T20:30:40;4.70;;;2.78;;
78818;SDS011;68166;55.090;37.460;2023-07-09T20:35:42;3.55;;;1.85;;
78818;SDS011;68166;55.090;37.460;2023-07-09T20:40:45;3.72;;;1.92;;
78818;SDS011;68166;55.090;37.460;2023-07-09T20:45:47;5.90;;;2.38;;
78818;SDS011;68166;55.090;37.460;2023-07-09T20:50:49;4.30;;;1.55;;
78818;SDS011;68166;55.090;37.460;2023-07-09T20:55:53;7.40;;;2.13;;
78818;SDS011;68166;55.090;37.460;2023-07-09T21:00:56;4.30;;;2.08;;
78818;SDS011;68166;55.090;37.460;2023-07-09T21:05:58;4.20;;;2.00;;
78818;SDS011;68166;55.090;37.460;2023-07-09T21:10:59;2.78;;;1.75;;
78818;SDS011;68166;55.090;37.460;2023-07-09T21:16:01;3.90;;;1.58;;
78818;SDS011;68166;55.090;37.460;2023-07-09T21:21:07;5.10;;;1.85;;
78818;SDS011;68166;55.090;37.460;2023-07-09T21:26:13;4.22;;;2.05;;
78818;SDS011;68166;55.090;37.460;2023-07-09T21:31:19;4.68;;;2.10;;
78818;SDS011;68166;55.090;37.460;2023-07-09T21:36:21;6.32;;;1.85;;
78818;SDS011;68166;55.090;37.460;2023-07-09T21:41:23;4.65;;;2.20;;
78818;SDS011;68166;55.090;37.460;2023-07-09T21:46:26;2.78;;;1.63;;
78818;SDS011;68166;55.090;37.460;2023-07-09T21:51:29;4.03;;;1.90;;
78818;SDS011;68166;55.090;37.460;2023-07-09T21:56:31;4.18;;;1.88;;
78818;SDS011;68166;55.090;37.460;2023-07-09T22:01:33;4.25;;;1.73;;
78818;SDS011;68166;55.090;37.460;2023-07-09T22:06:35;3.67;;;1.83;;
78818;SDS011;68166;55.090;37.460;2023-07-09T22:11:37;3.03;;;1.33;;
78818;SDS011;68166;55.090;37.460;2023-07-09T22:16:49;4.88;;;1.75;;
78818;SDS011;68166;55.090;37.460;2023-07-09T22:21:51;2.53;;;1.27;;
78818;SDS011;68166;55.090;37.460;2023-07-09T22:26:53;2.55;;;1.40;;
78818;SDS011;68166;55.090;37.460;2023-07-09T22:31:55;3.47;;;1.70;;
78818;SDS011;68166;55.090;37.460;2023-07-09T22:36:58;2.78;;;1.48;;
78818;SDS011;68166;55.090;37.460;2023-07-09T22:41:59;3.45;;;1.50;;
78818;SDS011;68166;55.090;37.460;2023-07-09T22:47:02;3.28;;;1.88;;
78818;SDS011;68166;55.090;37.460;2023-07-09T22:52:10;2.70;;;1.40;;
78818;SDS011;68166;55.090;37.460;2023-07-09T22:57:13;4.60;;;1.50;;
78818;SDS011;68166;55.090;37.460;2023-07-09T23:02:15;4.80;;;1.60;;
78818;SDS011;68166;55.090;37.460;2023-07-09T23:07:17;2.85;;;1.67;;
78818;SDS011;68166;55.090;37.460;2023-07-09T23:12:18;2.20;;;1.25;;
78818;SDS011;68166;55.090;37.460;2023-07-09T23:17:20;4.13;;;1.60;;
78818;SDS011;68166;55.090;37.460;2023-07-09T23:22:22;3.42;;;1.40;;
78818;SDS011;68166;55.090;37.460;2023-07-09T23:27:24;3.10;;;1.80;;
78818;SDS011;68166;55.090;37.460;2023-07-09T23:32:29;3.42;;;1.60;;
78818;SDS011;68166;55.090;37.460;2023-07-09T23:37:30;2.90;;;1.42;;
78818;SDS011;68166;55.090;37.460;2023-07-09T23:42:35;4.75;;;1.80;;
78818;SDS011;68166;55.090;37.460;2023-07-09T23:47:37;3.97;;;1.42;;
78818;SDS011;68166;55.090;37.460;2023-07-09T23:52:39;3.50;;;1.27;;
78818;SDS011;68166;55.090;37.460;2023-07-09T23:57:52;5.43;;;1.23;;
